createdAt,value
2023-03-24T00:00:39.387Z,13.12
2023-03-24T00:03:10.309Z,13.11
2023-03-24T00:06:00.654Z,13.08
2023-03-24T00:07:25.799Z,13.04
2023-03-24T00:09:25.600Z,13.03
2023-03-24T00:11:23.613Z,13.13
2023-03-24T00:17:30.559Z,13.04
2023-03-24T00:22:00.476Z,13.03
2023-03-24T00:24:50.435Z,13.09
2023-03-24T00:27:19.380Z,13.23
2023-03-24T00:29:09.094Z,13.35
2023-03-24T00:32:18.549Z,13.18
2023-03-24T00:34:17.732Z,13.25
2023-03-24T00:36:44.659Z,13.12
2023-03-24T00:40:06.198Z,13.11
2023-03-24T00:41:36.107Z,13.19
2023-03-24T00:43:54.813Z,13.13
2023-03-24T00:46:12.758Z,13.25
2023-03-24T00:50:45.369Z,13.05
2023-03-24T00:57:22.260Z,13.18
2023-03-24T01:00:41.433Z,13.20
2023-03-24T01:05:16.197Z,13.09
2023-03-24T01:06:46.207Z,13.15
2023-03-24T01:08:42.298Z,13.28
2023-03-24T01:10:11.341Z,13.31
2023-03-24T01:12:11.034Z,13.28
2023-03-24T01:14:46.566Z,13.25
2023-03-24T01:18:16.411Z,13.19
2023-03-24T01:19:45.247Z,13.22
2023-03-24T01:24:34.670Z,13.22
2023-03-24T01:30:40.416Z,13.30
2023-03-24T01:32:40.062Z,13.28
2023-03-24T01:34:10.987Z,13.37
2023-03-24T01:36:41.451Z,13.46
2023-03-24T01:39:44.114Z,13.47
2023-03-24T01:44:13.319Z,13.57
2023-03-24T01:47:11.101Z,13.54
2023-03-24T01:49:09.441Z,13.50
2023-03-24T01:59:23.211Z,13.54
2023-03-24T02:01:43.998Z,13.52
2023-03-24T02:04:42.462Z,13.63
2023-03-24T02:06:42.310Z,13.57
2023-03-24T02:09:33.057Z,13.63
2023-03-24T02:11:53.992Z,13.72
2023-03-24T02:14:10.431Z,13.62
2023-03-24T02:15:41.205Z,13.60
2023-03-24T02:17:10.328Z,13.68
2023-03-24T02:19:10.353Z,13.60
2023-03-24T02:22:58.279Z,13.59
2023-03-24T02:25:48.216Z,13.60
2023-03-24T02:27:15.387Z,13.74
2023-03-24T02:28:45.517Z,13.70
2023-03-24T02:31:14.936Z,13.68
2023-03-24T02:35:04.651Z,13.65
2023-03-24T02:37:41.388Z,13.78
2023-03-24T02:39:10.272Z,13.65
2023-03-24T02:41:40.357Z,13.78
2023-03-24T02:43:44.384Z,13.70
2023-03-24T02:47:32.861Z,13.62
2023-03-24T02:49:10.652Z,13.65
2023-03-24T02:51:16.579Z,13.62
2023-03-24T02:56:25.129Z,13.71
2023-03-24T03:00:19.535Z,13.65
2023-03-24T03:01:50.674Z,13.65
2023-03-24T03:03:19.095Z,13.75
2023-03-24T03:04:46.647Z,13.79
2023-03-24T03:10:13.268Z,13.71
2023-03-24T03:12:14.884Z,13.75
2023-03-24T03:17:16.163Z,13.78
2023-03-24T03:19:44.784Z,13.72
2023-03-24T03:22:04.453Z,13.68
2023-03-24T03:24:25.647Z,13.74
2023-03-24T03:25:52.738Z,13.77
2023-03-24T03:27:42.037Z,13.71
2023-03-24T03:35:57.793Z,13.89
2023-03-24T03:41:44.756Z,13.81
2023-03-24T03:45:16.291Z,13.89
2023-03-24T03:47:17.090Z,14.00
2023-03-24T03:52:03.536Z,13.92
2023-03-24T03:54:24.226Z,13.89
2023-03-24T03:57:20.525Z,13.87
2023-03-24T03:58:51.840Z,13.86
2023-03-24T04:01:19.091Z,13.99
2023-03-24T04:03:28.172Z,13.93
2023-03-24T04:07:14.643Z,14.00
2023-03-24T04:09:25.067Z,14.04
2023-03-24T04:12:49.091Z,14.08
2023-03-24T04:16:40.217Z,13.89
2023-03-24T04:18:09.673Z,13.79
2023-03-24T04:19:40.602Z,13.75
2023-03-24T04:24:20.418Z,13.72
2023-03-24T04:27:31.732Z,13.74
2023-03-24T04:31:15.864Z,13.50
2023-03-24T04:34:58.222Z,13.54
2023-03-24T04:36:50.844Z,13.62
2023-03-24T04:38:21.108Z,13.42
2023-03-24T04:41:17.844Z,13.44
2023-03-24T04:43:38.976Z,13.33
2023-03-24T04:45:10.467Z,13.25
2023-03-24T04:54:46.067Z,12.91
2023-03-24T04:59:25.973Z,12.79
2023-03-24T05:00:23.990Z,12.80
2023-03-24T05:01:23.302Z,12.87
2023-03-24T05:02:23.305Z,12.82
2023-03-24T05:05:05.889Z,12.83
2023-03-24T05:07:03.892Z,12.83
2023-03-24T05:11:16.335Z,12.70
2023-03-24T05:14:23.012Z,12.58
2023-03-24T05:16:27.143Z,12.50
2023-03-24T05:21:34.598Z,12.29
2023-03-24T05:24:10.739Z,12.24
2023-03-24T05:26:33.274Z,12.00
2023-03-24T05:29:30.958Z,12.09
2023-03-24T05:32:58.119Z,12.09
2023-03-24T05:35:17.140Z,12.10
2023-03-24T05:37:35.949Z,11.86
2023-03-24T05:41:43.016Z,11.95
2023-03-24T05:46:44.132Z,12.31
2023-03-24T05:53:57.934Z,12.22
2023-03-24T05:55:59.366Z,12.18
2023-03-24T05:58:20.301Z,12.09
2023-03-24T06:00:46.432Z,11.95
2023-03-24T06:02:17.701Z,12.00
2023-03-24T06:05:16.428Z,12.06
2023-03-24T06:07:35.529Z,12.10
2023-03-24T06:13:16.087Z,12.28
2023-03-24T06:16:14.941Z,12.24
2023-03-24T06:18:34.684Z,12.18
2023-03-24T06:22:08.495Z,12.15
2023-03-24T06:25:54.358Z,12.07
2023-03-24T06:28:31.276Z,12.02
2023-03-24T06:33:20.214Z,12.09
2023-03-24T06:40:08.449Z,12.02
2023-03-24T06:42:06.372Z,12.04
2023-03-24T06:45:15.024Z,12.04
2023-03-24T06:48:16.166Z,12.15
2023-03-24T06:50:03.042Z,12.21
2023-03-24T06:51:51.405Z,12.17
2023-03-24T06:53:20.325Z,12.22
2023-03-24T06:55:22.336Z,12.42
2023-03-24T07:00:24.223Z,12.24
2023-03-24T07:05:24.641Z,12.57
2023-03-24T07:09:21.763Z,12.37
2023-03-24T07:15:20.925Z,12.45
2023-03-24T07:17:10.296Z,12.28
2023-03-24T07:19:09.244Z,12.35
2023-03-24T07:21:33.646Z,12.31
2023-03-24T07:23:01.716Z,12.55
2023-03-24T07:24:31.963Z,12.53
2023-03-24T07:27:16.084Z,12.47
2023-03-24T07:31:07.163Z,12.46
2023-03-24T07:34:07.369Z,12.57
2023-03-24T07:37:05.983Z,12.54
2023-03-24T07:39:11.332Z,12.73
2023-03-24T07:41:14.301Z,12.54
2023-03-24T07:42:39.294Z,12.58
2023-03-24T07:47:05.198Z,12.67
2023-03-24T07:50:56.548Z,12.90
2023-03-24T07:53:30.325Z,12.94
2023-03-24T07:55:30.492Z,12.95
2023-03-24T07:57:04.494Z,12.83
2023-03-24T07:58:35.523Z,12.82
2023-03-24T08:03:41.114Z,13.01
2023-03-24T08:05:41.348Z,13.22
2023-03-24T08:14:07.650Z,13.47
2023-03-24T08:22:08.192Z,13.56
2023-03-24T08:23:56.847Z,13.62
2023-03-24T08:26:53.598Z,13.70
2023-03-24T08:28:56.655Z,13.67
2023-03-24T08:30:28.702Z,13.71
2023-03-24T08:38:22.698Z,13.78
2023-03-24T08:40:29.210Z,14.00
2023-03-24T08:43:09.065Z,14.14
2023-03-24T08:48:08.511Z,14.55
2023-03-24T08:52:56.843Z,14.88
2023-03-24T08:54:24.116Z,15.18
2023-03-24T08:56:24.073Z,15.04
2023-03-24T08:57:54.706Z,15.22
2023-03-24T09:00:26.266Z,15.31
2023-03-24T09:04:03.498Z,15.15
2023-03-24T09:07:59.178Z,14.99
2023-03-24T09:10:02.026Z,14.66
2023-03-24T09:11:31.971Z,14.84
2023-03-24T09:13:31.165Z,14.60
2023-03-24T09:15:28.713Z,14.51
2023-03-24T09:20:01.488Z,14.50
2023-03-24T09:21:24.987Z,14.77
2023-03-24T09:26:54.681Z,15.15
2023-03-24T09:30:11.401Z,15.51
2023-03-24T09:33:17.636Z,15.52
2023-03-24T09:35:52.009Z,15.95
2023-03-24T09:45:35.496Z,15.17
2023-03-24T09:47:08.169Z,15.24
2023-03-24T09:49:05.807Z,15.29
2023-03-24T09:50:42.003Z,15.40
2023-03-24T09:52:43.164Z,15.54
2023-03-24T09:54:21.401Z,15.61
2023-03-24T09:57:15.629Z,15.09
2023-03-24T10:02:10.671Z,15.55
2023-03-24T10:03:37.667Z,15.65
2023-03-24T10:05:26.817Z,15.68
2023-03-24T10:06:57.563Z,15.62
2023-03-24T10:09:16.699Z,15.11
2023-03-24T10:17:56.830Z,15.14
2023-03-24T10:19:43.988Z,14.89
2023-03-24T10:23:24.505Z,14.81
2023-03-24T10:24:55.885Z,14.94
2023-03-24T10:26:57.044Z,14.89
2023-03-24T10:27:56.977Z,14.70
2023-03-24T10:29:17.993Z,14.69
2023-03-24T10:34:10.984Z,16.78
2023-03-24T10:36:41.462Z,18.77
2023-03-24T10:39:26.108Z,20.67
2023-03-24T10:42:02.087Z,21.30
2023-03-24T10:46:31.541Z,23.68
2023-03-24T10:48:21.172Z,22.60
2023-03-24T10:50:46.291Z,23.55
2023-03-24T10:52:35.468Z,23.48
2023-03-24T10:54:33.776Z,22.96
2023-03-24T10:57:41.352Z,23.73
2023-03-24T11:02:07.249Z,25.43
2023-03-24T11:04:57.577Z,24.43
2023-03-24T11:06:25.678Z,24.98
2023-03-24T11:16:37.892Z,25.06
2023-03-24T11:18:11.199Z,24.02
2023-03-24T11:21:39.730Z,23.36
2023-03-24T11:23:08.574Z,23.05
2023-03-24T11:26:17.937Z,25.58
2023-03-24T11:29:47.444Z,26.62
2023-03-24T11:33:17.793Z,25.63
2023-03-24T11:34:46.974Z,25.78
2023-03-24T11:39:43.251Z,27.55
2023-03-24T11:41:59.016Z,27.59
2023-03-24T11:44:50.490Z,27.08
2023-03-24T11:47:39.399Z,28.11
2023-03-24T11:51:14.331Z,27.54
2023-03-24T11:53:02.301Z,25.77
2023-03-24T11:56:50.770Z,20.99
2023-03-24T11:59:29.889Z,19.84
2023-03-24T12:02:20.020Z,18.81
2023-03-24T12:04:54.577Z,18.73
2023-03-24T12:09:13.894Z,18.19
2023-03-24T12:13:37.951Z,17.11
2023-03-24T12:16:31.990Z,16.33
2023-03-24T12:21:00.953Z,15.76
2023-03-24T12:24:49.272Z,16.81
2023-03-24T12:36:25.214Z,17.05
2023-03-24T12:45:24.071Z,18.43
2023-03-24T12:49:51.310Z,17.36
2023-03-24T12:51:49.736Z,16.81
2023-03-24T12:53:17.179Z,16.50
2023-03-24T12:55:15.589Z,16.46
2023-03-24T12:56:44.331Z,16.54
2023-03-24T12:58:15.921Z,16.47
2023-03-24T12:59:44.045Z,16.49
2023-03-24T13:01:14.004Z,16.29
2023-03-24T13:04:53.660Z,16.01
2023-03-24T13:06:24.660Z,15.88
2023-03-24T13:09:00.321Z,15.40
2023-03-24T13:10:27.540Z,15.15
2023-03-24T13:11:58.400Z,14.81
2023-03-24T13:19:34.781Z,14.12
2023-03-24T13:21:05.482Z,14.28
2023-03-24T13:25:50.710Z,14.26
2023-03-24T13:27:51.165Z,14.08
2023-03-24T13:31:55.882Z,13.92
2023-03-24T13:34:43.544Z,13.79
2023-03-24T13:38:29.694Z,13.57
2023-03-24T13:41:00.492Z,13.74
2023-03-24T13:43:59.442Z,13.85
2023-03-24T13:47:24.022Z,13.89
2023-03-24T13:48:53.016Z,13.87
2023-03-24T13:51:51.800Z,14.07
2023-03-24T13:56:12.902Z,17.72
2023-03-24T14:02:50.476Z,19.69
2023-03-24T14:05:37.284Z,17.70
2023-03-24T14:08:55.905Z,16.96
2023-03-24T14:11:03.545Z,16.02
2023-03-24T14:13:33.478Z,15.10
2023-03-24T14:15:34.215Z,14.94
2023-03-24T14:17:22.016Z,14.96
2023-03-24T14:23:00.166Z,14.77
2023-03-24T14:25:49.110Z,14.72
2023-03-24T14:29:31.273Z,14.25
2023-03-24T14:31:19.949Z,14.00
2023-03-24T14:36:59.529Z,14.26
2023-03-24T14:43:32.670Z,13.67
2023-03-24T14:46:42.378Z,13.77
2023-03-24T14:49:02.387Z,13.81
2023-03-24T14:54:04.021Z,13.93
2023-03-24T14:57:23.315Z,13.89
2023-03-24T14:59:14.329Z,13.75
2023-03-24T15:09:45.529Z,13.13
2023-03-24T15:12:34.099Z,13.03
2023-03-24T15:15:41.883Z,13.12
2023-03-24T15:21:39.876Z,13.13
2023-03-24T15:23:55.785Z,13.12
2023-03-24T15:26:34.300Z,12.79
2023-03-24T15:29:38.206Z,12.85
2023-03-24T15:32:49.348Z,12.90
2023-03-24T15:35:43.592Z,13.08
2023-03-24T15:40:14.766Z,13.50
2023-03-24T15:44:44.406Z,13.49
2023-03-24T15:46:12.972Z,13.59
2023-03-24T15:48:35.197Z,13.63
2023-03-24T15:51:22.597Z,13.57
2023-03-24T15:56:40.842Z,13.93
2023-03-24T16:03:04.729Z,13.50
2023-03-24T16:05:53.550Z,13.39
2023-03-24T16:07:43.256Z,13.31
2023-03-24T16:10:12.926Z,13.11
2023-03-24T16:12:05.840Z,13.27
2023-03-24T16:14:02.814Z,13.38
2023-03-24T16:16:41.326Z,13.37
2023-03-24T16:18:30.031Z,13.37
2023-03-24T16:23:45.534Z,13.20
2023-03-24T16:26:08.034Z,13.33
2023-03-24T16:28:26.379Z,13.28
2023-03-24T16:30:13.507Z,13.38
2023-03-24T16:34:34.547Z,13.25
2023-03-24T16:36:30.531Z,13.25
2023-03-24T16:41:58.869Z,12.91
2023-03-24T16:44:17.755Z,13.11
2023-03-24T16:50:48.186Z,13.09
2023-03-24T16:55:57.516Z,13.03
2023-03-24T17:01:55.680Z,13.04
2023-03-24T17:07:05.509Z,13.15
2023-03-24T17:09:13.831Z,13.23
2023-03-24T17:09:52.800Z,13.08
2023-03-24T17:10:52.814Z,12.94
2023-03-24T17:11:52.804Z,12.83
2023-03-24T17:15:24.447Z,12.79
2023-03-24T17:18:52.366Z,12.49
2023-03-24T17:23:12.118Z,12.58
2023-03-24T17:24:41.866Z,12.68
2023-03-24T17:26:40.735Z,12.55
2023-03-24T17:28:56.731Z,12.32
2023-03-24T17:38:09.462Z,12.50
2023-03-24T17:39:40.601Z,12.54
2023-03-24T17:44:41.105Z,12.40
2023-03-24T17:47:33.928Z,12.18
2023-03-24T17:50:52.752Z,12.18
2023-03-24T17:56:59.602Z,11.99
2023-03-24T17:58:29.558Z,11.88
2023-03-24T18:03:08.730Z,12.00
2023-03-24T18:04:44.217Z,11.95
2023-03-24T18:07:06.206Z,11.66
2023-03-24T18:12:30.856Z,11.87
2023-03-24T18:14:57.826Z,11.72
2023-03-24T18:17:42.626Z,11.68
2023-03-24T18:19:11.515Z,11.65
2023-03-24T18:20:40.475Z,11.69
2023-03-24T18:22:17.359Z,11.68
2023-03-24T18:24:46.467Z,11.60
2023-03-24T18:26:14.311Z,11.59
2023-03-24T18:28:38.424Z,11.51
2023-03-24T18:30:10.372Z,11.55
2023-03-24T18:31:42.684Z,11.50
2023-03-24T18:33:13.517Z,11.50
2023-03-24T18:34:44.529Z,11.55
2023-03-24T18:42:52.242Z,11.51
2023-03-24T18:50:30.151Z,11.41
2023-03-24T18:57:32.801Z,11.27
2023-03-24T18:59:33.701Z,11.40
2023-03-24T19:02:01.555Z,11.44
2023-03-24T19:03:28.905Z,11.55
2023-03-24T19:05:56.923Z,11.40
2023-03-24T19:07:26.830Z,11.36
2023-03-24T19:09:27.385Z,11.44
2023-03-24T19:16:14.999Z,11.60
2023-03-24T19:18:31.176Z,11.55
2023-03-24T19:26:20.138Z,11.51
2023-03-24T19:28:18.892Z,11.52
2023-03-24T19:30:16.327Z,11.55
2023-03-24T19:41:25.410Z,11.72
2023-03-24T19:49:31.828Z,11.59
2023-03-24T19:51:31.057Z,11.55
2023-03-24T19:54:42.726Z,11.47
2023-03-24T19:58:02.489Z,11.40
2023-03-24T20:00:26.304Z,11.44
2023-03-24T20:07:41.292Z,11.44
2023-03-24T20:16:44.788Z,11.35
2023-03-24T20:19:34.638Z,11.41
2023-03-24T20:25:51.988Z,11.37
2023-03-24T20:30:15.570Z,11.45
2023-03-24T20:34:21.736Z,11.47
2023-03-24T20:38:45.889Z,11.48
2023-03-24T20:40:14.763Z,11.47
2023-03-24T20:42:05.247Z,11.43
2023-03-24T20:46:22.172Z,11.36
2023-03-24T20:47:50.158Z,11.35
2023-03-24T20:50:19.757Z,11.40
2023-03-24T20:51:46.697Z,11.37
2023-03-24T20:53:15.586Z,11.33
2023-03-24T20:54:44.477Z,11.25
2023-03-24T20:56:14.399Z,11.26
2023-03-24T20:57:44.404Z,11.33
2023-03-24T21:02:59.342Z,11.11
2023-03-24T21:04:28.957Z,11.17
2023-03-24T21:09:16.755Z,11.07
2023-03-24T21:16:52.146Z,11.07
2023-03-24T21:18:20.143Z,11.05
2023-03-24T21:20:09.810Z,11.08
2023-03-24T21:21:39.755Z,11.08
2023-03-24T21:23:09.657Z,11.10
2023-03-24T21:26:04.413Z,11.04
2023-03-24T21:27:33.314Z,11.00
2023-03-24T21:30:01.128Z,11.05
2023-03-24T21:32:58.016Z,10.93
2023-03-24T21:37:35.765Z,10.89
2023-03-24T21:41:01.934Z,10.99
2023-03-24T21:43:23.787Z,10.96
2023-03-24T21:47:54.425Z,10.89
2023-03-24T21:53:30.523Z,10.99
2023-03-24T21:56:45.115Z,10.96
2023-03-24T21:59:13.692Z,11.08
2023-03-24T22:02:10.647Z,11.02
2023-03-24T22:04:39.788Z,10.97
2023-03-24T22:06:08.720Z,10.92
2023-03-24T22:09:09.258Z,10.93
2023-03-24T22:12:11.937Z,10.97
2023-03-24T22:13:42.749Z,10.99
2023-03-24T22:15:40.331Z,11.04
2023-03-24T22:18:09.653Z,10.89
2023-03-24T22:20:36.133Z,10.99
2023-03-24T22:22:05.054Z,10.89
2023-03-24T22:26:29.884Z,10.79
2023-03-24T22:29:57.416Z,10.84
2023-03-24T22:34:11.109Z,10.69
2023-03-24T22:35:40.038Z,10.81
2023-03-24T22:37:38.036Z,10.78
2023-03-24T22:45:18.418Z,10.78
2023-03-24T22:46:55.441Z,10.86
2023-03-24T22:57:09.769Z,10.87
2023-03-24T23:01:29.710Z,10.79
2023-03-24T23:09:05.650Z,10.76
2023-03-24T23:11:36.474Z,10.89
2023-03-24T23:15:01.945Z,11.00
2023-03-24T23:20:08.284Z,10.87
2023-03-24T23:21:37.131Z,10.89
2023-03-24T23:24:14.772Z,10.87
2023-03-24T23:25:43.628Z,10.84
2023-03-24T23:27:45.469Z,10.87
2023-03-24T23:30:20.562Z,10.84
2023-03-24T23:34:11.381Z,10.81
2023-03-24T23:35:39.885Z,10.76
2023-03-24T23:37:34.282Z,10.87
2023-03-24T23:42:03.889Z,10.89
2023-03-24T23:44:34.545Z,10.79
2023-03-24T23:46:21.871Z,10.97
2023-03-24T23:50:39.520Z,10.82
2023-03-24T23:57:48.558Z,10.76
2023-03-24T23:59:37.375Z,10.82
